sensor_id;sensor_type;location;lat;lon;timestamp;P1;durP1;ratioP1;P2;durP2;ratioP2
11111;SDS011;5609;49.466;8.468;2022-10-16T00:02:23;3.70;;;2.50;;
11111;SDS011;5609;49.466;8.468;2022-10-16T00:04:50;2.63;;;2.10;;
11111;SDS011;5609;49.466;8.468;2022-10-16T00:07:21;3.03;;;2.73;;
11111;SDS011;5609;49.466;8.468;2022-10-16T00:09:48;3.93;;;2.30;;
11111;SDS011;5609;49.466;8.468;2022-10-16T00:12:14;2.67;;;2.27;;
11111;SDS011;5609;49.466;8.468;2022-10-16T00:14:41;2.93;;;2.33;;
11111;SDS011;5609;49.466;8.468;2022-10-16T00:17:09;3.73;;;2.47;;
11111;SDS011;5609;49.466;8.468;2022-10-16T00:19:35;2.87;;;2.30;;
11111;SDS011;5609;49.466;8.468;2022-10-16T00:22:02;3.40;;;2.40;;
11111;SDS011;5609;49.466;8.468;2022-10-16T00:24:30;5.50;;;2.40;;
11111;SDS011;5609;49.466;8.468;2022-10-16T00:26:57;3.47;;;2.53;;
11111;SDS011;5609;49.466;8.468;2022-10-16T00:29:24;4.13;;;2.63;;
11111;SDS011;5609;49.466;8.468;2022-10-16T00:31:50;3.27;;;2.60;;
11111;SDS011;5609;49.466;8.468;2022-10-16T00:34:17;4.63;;;2.77;;
11111;SDS011;5609;49.466;8.468;2022-10-16T00:36:44;4.60;;;2.73;;
11111;SDS011;5609;49.466;8.468;2022-10-16T00:39:10;5.30;;;2.77;;
11111;SDS011;5609;49.466;8.468;2022-10-16T00:41:38;2.93;;;2.53;;
11111;SDS011;5609;49.466;8.468;2022-10-16T00:47:06;3.07;;;2.30;;
11111;SDS011;5609;49.466;8.468;2022-10-16T00:49:35;3.77;;;2.67;;
11111;SDS011;5609;49.466;8.468;2022-10-16T00:52:02;3.23;;;2.40;;
11111;SDS011;5609;49.466;8.468;2022-10-16T00:54:30;4.73;;;2.77;;
11111;SDS011;5609;49.466;8.468;2022-10-16T00:56:59;4.20;;;2.67;;
11111;SDS011;5609;49.466;8.468;2022-10-16T00:59:30;3.27;;;2.50;;
11111;SDS011;5609;49.466;8.468;2022-10-16T01:02:00;3.73;;;2.67;;
11111;SDS011;5609;49.466;8.468;2022-10-16T01:04:28;2.73;;;2.53;;
11111;SDS011;5609;49.466;8.468;2022-10-16T01:07:01;3.70;;;2.60;;
11111;SDS011;5609;49.466;8.468;2022-10-16T01:09:36;3.20;;;2.50;;
11111;SDS011;5609;49.466;8.468;2022-10-16T01:12:14;2.97;;;2.50;;
11111;SDS011;5609;49.466;8.468;2022-10-16T01:14:45;3.90;;;2.60;;
11111;SDS011;5609;49.466;8.468;2022-10-16T01:17:15;3.70;;;2.50;;
11111;SDS011;5609;49.466;8.468;2022-10-16T01:19:50;3.30;;;2.60;;
11111;SDS011;5609;49.466;8.468;2022-10-16T01:22:26;4.50;;;2.63;;
11111;SDS011;5609;49.466;8.468;2022-10-16T01:25:05;2.87;;;2.40;;
11111;SDS011;5609;49.466;8.468;2022-10-16T01:27:39;4.07;;;2.67;;
11111;SDS011;5609;49.466;8.468;2022-10-16T01:30:10;3.37;;;2.20;;
11111;SDS011;5609;49.466;8.468;2022-10-16T01:32:40;4.37;;;2.50;;
11111;SDS011;5609;49.466;8.468;2022-10-16T01:35:10;5.10;;;2.30;;
11111;SDS011;5609;49.466;8.468;2022-10-16T01:37:42;4.57;;;2.50;;
11111;SDS011;5609;49.466;8.468;2022-10-16T01:40:13;5.37;;;2.43;;
11111;SDS011;5609;49.466;8.468;2022-10-16T01:42:44;2.70;;;2.30;;
11111;SDS011;5609;49.466;8.468;2022-10-16T01:45:14;2.83;;;2.50;;
11111;SDS011;5609;49.466;8.468;2022-10-16T01:47:44;3.37;;;2.40;;
11111;SDS011;5609;49.466;8.468;2022-10-16T01:50:14;4.10;;;2.60;;
11111;SDS011;5609;49.466;8.468;2022-10-16T01:52:45;3.27;;;2.70;;
11111;SDS011;5609;49.466;8.468;2022-10-16T01:55:14;3.23;;;2.23;;
11111;SDS011;5609;49.466;8.468;2022-10-16T01:57:46;3.67;;;2.50;;
11111;SDS011;5609;49.466;8.468;2022-10-16T02:00:16;3.17;;;2.30;;
11111;SDS011;5609;49.466;8.468;2022-10-16T02:02:45;2.67;;;2.47;;
11111;SDS011;5609;49.466;8.468;2022-10-16T02:05:18;3.00;;;2.40;;
11111;SDS011;5609;49.466;8.468;2022-10-16T02:07:49;3.30;;;2.70;;
11111;SDS011;5609;49.466;8.468;2022-10-16T02:10:16;5.30;;;2.30;;
11111;SDS011;5609;49.466;8.468;2022-10-16T02:12:45;5.50;;;2.57;;
11111;SDS011;5609;49.466;8.468;2022-10-16T02:15:16;2.80;;;2.30;;
11111;SDS011;5609;49.466;8.468;2022-10-16T02:17:43;5.57;;;2.53;;
11111;SDS011;5609;49.466;8.468;2022-10-16T02:20:09;4.60;;;2.40;;
11111;SDS011;5609;49.466;8.468;2022-10-16T02:22:38;3.50;;;2.33;;
11111;SDS011;5609;49.466;8.468;2022-10-16T02:25:08;4.93;;;2.20;;
11111;SDS011;5609;49.466;8.468;2022-10-16T02:27:38;3.67;;;2.40;;
11111;SDS011;5609;49.466;8.468;2022-10-16T02:30:11;3.90;;;2.67;;
11111;SDS011;5609;49.466;8.468;2022-10-16T02:32:41;3.07;;;2.40;;
11111;SDS011;5609;49.466;8.468;2022-10-16T02:35:10;3.37;;;2.30;;
11111;SDS011;5609;49.466;8.468;2022-10-16T02:37:38;3.83;;;2.30;;
11111;SDS011;5609;49.466;8.468;2022-10-16T02:40:07;3.37;;;2.27;;
11111;SDS011;5609;49.466;8.468;2022-10-16T02:42:34;3.27;;;2.50;;
11111;SDS011;5609;49.466;8.468;2022-10-16T02:45:03;3.13;;;2.50;;
11111;SDS011;5609;49.466;8.468;2022-10-16T02:47:31;4.53;;;2.70;;
11111;SDS011;5609;49.466;8.468;2022-10-16T02:49:58;3.77;;;2.63;;
11111;SDS011;5609;49.466;8.468;2022-10-16T02:52:25;6.00;;;2.50;;
11111;SDS011;5609;49.466;8.468;2022-10-16T02:54:52;3.73;;;2.50;;
11111;SDS011;5609;49.466;8.468;2022-10-16T02:57:19;2.90;;;2.60;;
11111;SDS011;5609;49.466;8.468;2022-10-16T02:59:45;3.77;;;2.60;;
11111;SDS011;5609;49.466;8.468;2022-10-16T03:02:12;4.07;;;2.40;;
11111;SDS011;5609;49.466;8.468;2022-10-16T03:04:40;3.67;;;2.50;;
11111;SDS011;5609;49.466;8.468;2022-10-16T03:07:07;6.33;;;2.70;;
11111;SDS011;5609;49.466;8.468;2022-10-16T03:09:34;4.80;;;2.70;;
11111;SDS011;5609;49.466;8.468;2022-10-16T03:12:00;5.50;;;2.87;;
11111;SDS011;5609;49.466;8.468;2022-10-16T03:14:27;3.67;;;2.97;;
11111;SDS011;5609;49.466;8.468;2022-10-16T03:16:54;3.50;;;2.80;;
11111;SDS011;5609;49.466;8.468;2022-10-16T03:19:21;4.63;;;2.90;;
11111;SDS011;5609;49.466;8.468;2022-10-16T03:21:49;4.47;;;2.97;;
11111;SDS011;5609;49.466;8.468;2022-10-16T03:24:16;3.60;;;3.10;;
11111;SDS011;5609;49.466;8.468;2022-10-16T03:26:43;3.43;;;3.10;;
11111;SDS011;5609;49.466;8.468;2022-10-16T03:29:10;3.63;;;3.03;;
11111;SDS011;5609;49.466;8.468;2022-10-16T03:31:36;3.70;;;3.03;;
11111;SDS011;5609;49.466;8.468;2022-10-16T03:34:03;3.87;;;3.00;;
11111;SDS011;5609;49.466;8.468;2022-10-16T03:36:30;3.77;;;2.90;;
11111;SDS011;5609;49.466;8.468;2022-10-16T03:38:58;3.83;;;3.00;;
11111;SDS011;5609;49.466;8.468;2022-10-16T03:41:24;4.27;;;3.23;;
11111;SDS011;5609;49.466;8.468;2022-10-16T03:43:51;4.07;;;2.90;;
11111;SDS011;5609;49.466;8.468;2022-10-16T03:46:18;3.67;;;2.80;;
11111;SDS011;5609;49.466;8.468;2022-10-16T03:48:45;3.97;;;2.83;;
11111;SDS011;5609;49.466;8.468;2022-10-16T03:51:11;4.03;;;3.10;;
11111;SDS011;5609;49.466;8.468;2022-10-16T03:53:38;4.17;;;3.20;;
11111;SDS011;5609;49.466;8.468;2022-10-16T03:56:06;4.57;;;3.23;;
11111;SDS011;5609;49.466;8.468;2022-10-16T03:58:33;3.87;;;2.90;;
11111;SDS011;5609;49.466;8.468;2022-10-16T04:01:00;3.23;;;2.90;;
11111;SDS011;5609;49.466;8.468;2022-10-16T04:03:27;4.87;;;2.97;;
11111;SDS011;5609;49.466;8.468;2022-10-16T04:05:54;6.73;;;3.00;;
11111;SDS011;5609;49.466;8.468;2022-10-16T04:08:21;4.03;;;3.10;;
11111;SDS011;5609;49.466;8.468;2022-10-16T04:10:48;6.67;;;2.90;;
11111;SDS011;5609;49.466;8.468;2022-10-16T04:13:16;4.67;;;2.87;;
11111;SDS011;5609;49.466;8.468;2022-10-16T04:15:44;5.27;;;3.30;;
11111;SDS011;5609;49.466;8.468;2022-10-16T04:18:11;3.70;;;3.27;;
11111;SDS011;5609;49.466;8.468;2022-10-16T04:20:37;4.77;;;3.30;;
11111;SDS011;5609;49.466;8.468;2022-10-16T04:23:04;4.80;;;2.73;;
11111;SDS011;5609;49.466;8.468;2022-10-16T04:25:31;4.50;;;3.03;;
11111;SDS011;5609;49.466;8.468;2022-10-16T04:27:58;5.03;;;3.10;;
11111;SDS011;5609;49.466;8.468;2022-10-16T04:30:26;4.40;;;3.20;;
11111;SDS011;5609;49.466;8.468;2022-10-16T04:32:52;4.27;;;3.00;;
11111;SDS011;5609;49.466;8.468;2022-10-16T04:35:20;4.40;;;3.13;;
11111;SDS011;5609;49.466;8.468;2022-10-16T04:37:47;4.33;;;3.10;;
11111;SDS011;5609;49.466;8.468;2022-10-16T04:40:14;4.50;;;3.27;;
11111;SDS011;5609;49.466;8.468;2022-10-16T04:42:41;3.80;;;3.50;;
11111;SDS011;5609;49.466;8.468;2022-10-16T04:45:08;4.77;;;3.40;;
11111;SDS011;5609;49.466;8.468;2022-10-16T04:47:36;6.37;;;3.70;;
11111;SDS011;5609;49.466;8.468;2022-10-16T04:50:03;5.23;;;3.33;;
11111;SDS011;5609;49.466;8.468;2022-10-16T04:52:31;3.53;;;3.23;;
11111;SDS011;5609;49.466;8.468;2022-10-16T04:54:58;4.27;;;3.70;;
11111;SDS011;5609;49.466;8.468;2022-10-16T04:57:27;5.10;;;3.40;;
11111;SDS011;5609;49.466;8.468;2022-10-16T04:59:54;5.77;;;3.60;;
11111;SDS011;5609;49.466;8.468;2022-10-16T05:02:21;6.17;;;3.80;;
11111;SDS011;5609;49.466;8.468;2022-10-16T05:04:49;4.30;;;3.50;;
11111;SDS011;5609;49.466;8.468;2022-10-16T05:07:15;5.33;;;3.70;;
11111;SDS011;5609;49.466;8.468;2022-10-16T05:09:42;4.37;;;3.53;;
11111;SDS011;5609;49.466;8.468;2022-10-16T05:12:09;5.97;;;3.43;;
11111;SDS011;5609;49.466;8.468;2022-10-16T05:14:36;4.00;;;3.70;;
11111;SDS011;5609;49.466;8.468;2022-10-16T05:17:02;4.87;;;3.63;;
11111;SDS011;5609;49.466;8.468;2022-10-16T05:19:29;5.57;;;3.60;;
11111;SDS011;5609;49.466;8.468;2022-10-16T05:21:57;7.17;;;3.70;;
11111;SDS011;5609;49.466;8.468;2022-10-16T05:24:24;5.10;;;3.53;;
11111;SDS011;5609;49.466;8.468;2022-10-16T05:26:51;3.97;;;3.57;;
11111;SDS011;5609;49.466;8.468;2022-10-16T05:29:18;5.50;;;3.60;;
11111;SDS011;5609;49.466;8.468;2022-10-16T05:31:45;4.93;;;3.40;;
11111;SDS011;5609;49.466;8.468;2022-10-16T05:34:11;4.93;;;3.50;;
11111;SDS011;5609;49.466;8.468;2022-10-16T05:36:38;5.70;;;3.70;;
11111;SDS011;5609;49.466;8.468;2022-10-16T05:39:06;6.83;;;3.40;;
11111;SDS011;5609;49.466;8.468;2022-10-16T05:41:33;4.90;;;3.50;;
11111;SDS011;5609;49.466;8.468;2022-10-16T05:44:00;4.70;;;3.20;;
11111;SDS011;5609;49.466;8.468;2022-10-16T05:46:29;6.20;;;3.47;;
11111;SDS011;5609;49.466;8.468;2022-10-16T05:48:56;5.37;;;3.20;;
11111;SDS011;5609;49.466;8.468;2022-10-16T05:51:23;5.33;;;2.93;;
11111;SDS011;5609;49.466;8.468;2022-10-16T05:53:50;4.07;;;2.93;;
11111;SDS011;5609;49.466;8.468;2022-10-16T05:56:19;6.20;;;3.17;;
11111;SDS011;5609;49.466;8.468;2022-10-16T05:58:46;6.57;;;3.00;;
11111;SDS011;5609;49.466;8.468;2022-10-16T06:01:13;3.87;;;3.10;;
11111;SDS011;5609;49.466;8.468;2022-10-16T06:03:41;4.83;;;2.80;;
11111;SDS011;5609;49.466;8.468;2022-10-16T06:06:09;4.63;;;2.80;;
11111;SDS011;5609;49.466;8.468;2022-10-16T06:08:36;3.43;;;2.60;;
11111;SDS011;5609;49.466;8.468;2022-10-16T06:11:04;4.37;;;2.73;;
11111;SDS011;5609;49.466;8.468;2022-10-16T06:13:33;3.40;;;2.60;;
11111;SDS011;5609;49.466;8.468;2022-10-16T06:16:00;4.77;;;2.70;;
11111;SDS011;5609;49.466;8.468;2022-10-16T06:18:28;3.07;;;2.67;;
11111;SDS011;5609;49.466;8.468;2022-10-16T06:20:55;3.20;;;2.70;;
11111;SDS011;5609;49.466;8.468;2022-10-16T06:23:22;3.27;;;2.97;;
11111;SDS011;5609;49.466;8.468;2022-10-16T06:25:50;3.37;;;2.73;;
11111;SDS011;5609;49.466;8.468;2022-10-16T06:28:17;6.07;;;2.90;;
11111;SDS011;5609;49.466;8.468;2022-10-16T06:30:45;4.40;;;2.80;;
11111;SDS011;5609;49.466;8.468;2022-10-16T06:33:11;4.37;;;2.90;;
11111;SDS011;5609;49.466;8.468;2022-10-16T06:35:39;3.07;;;2.77;;
11111;SDS011;5609;49.466;8.468;2022-10-16T06:38:05;3.60;;;2.80;;
11111;SDS011;5609;49.466;8.468;2022-10-16T06:40:32;5.30;;;2.70;;
11111;SDS011;5609;49.466;8.468;2022-10-16T06:42:59;3.80;;;2.97;;
11111;SDS011;5609;49.466;8.468;2022-10-16T06:45:25;3.80;;;2.60;;
11111;SDS011;5609;49.466;8.468;2022-10-16T06:47:53;3.80;;;3.07;;
11111;SDS011;5609;49.466;8.468;2022-10-16T06:50:20;3.50;;;3.10;;
11111;SDS011;5609;49.466;8.468;2022-10-16T06:52:47;3.37;;;3.00;;
11111;SDS011;5609;49.466;8.468;2022-10-16T06:55:14;3.10;;;2.67;;
11111;SDS011;5609;49.466;8.468;2022-10-16T06:57:42;5.37;;;2.80;;
11111;SDS011;5609;49.466;8.468;2022-10-16T07:00:09;4.17;;;2.60;;
11111;SDS011;5609;49.466;8.468;2022-10-16T07:02:36;3.60;;;2.73;;
11111;SDS011;5609;49.466;8.468;2022-10-16T07:05:04;4.63;;;2.63;;
11111;SDS011;5609;49.466;8.468;2022-10-16T07:07:31;4.07;;;3.13;;
11111;SDS011;5609;49.466;8.468;2022-10-16T07:09:58;4.20;;;2.70;;
11111;SDS011;5609;49.466;8.468;2022-10-16T07:12:25;2.70;;;2.50;;
11111;SDS011;5609;49.466;8.468;2022-10-16T07:14:52;3.83;;;2.50;;
11111;SDS011;5609;49.466;8.468;2022-10-16T07:17:19;3.43;;;2.60;;
11111;SDS011;5609;49.466;8.468;2022-10-16T07:19:46;4.23;;;3.00;;
11111;SDS011;5609;49.466;8.468;2022-10-16T07:22:14;4.90;;;2.40;;
11111;SDS011;5609;49.466;8.468;2022-10-16T07:24:41;4.57;;;2.53;;
11111;SDS011;5609;49.466;8.468;2022-10-16T07:27:08;2.70;;;2.33;;
11111;SDS011;5609;49.466;8.468;2022-10-16T07:29:35;2.67;;;2.20;;
11111;SDS011;5609;49.466;8.468;2022-10-16T07:32:01;4.13;;;2.70;;
11111;SDS011;5609;49.466;8.468;2022-10-16T07:34:28;3.33;;;2.43;;
11111;SDS011;5609;49.466;8.468;2022-10-16T07:36:55;5.50;;;2.90;;
11111;SDS011;5609;49.466;8.468;2022-10-16T07:39:23;4.83;;;2.60;;
11111;SDS011;5609;49.466;8.468;2022-10-16T07:41:50;5.03;;;2.50;;
11111;SDS011;5609;49.466;8.468;2022-10-16T07:44:17;5.07;;;2.60;;
11111;SDS011;5609;49.466;8.468;2022-10-16T07:46:43;3.83;;;2.57;;
11111;SDS011;5609;49.466;8.468;2022-10-16T07:49:10;2.73;;;2.40;;
11111;SDS011;5609;49.466;8.468;2022-10-16T07:51:37;3.90;;;2.47;;
11111;SDS011;5609;49.466;8.468;2022-10-16T07:54:04;2.83;;;2.43;;
11111;SDS011;5609;49.466;8.468;2022-10-16T07:56:32;5.13;;;2.57;;
11111;SDS011;5609;49.466;8.468;2022-10-16T07:58:59;4.27;;;2.40;;
11111;SDS011;5609;49.466;8.468;2022-10-16T08:01:25;3.90;;;2.60;;
11111;SDS011;5609;49.466;8.468;2022-10-16T08:03:52;7.57;;;2.57;;
11111;SDS011;5609;49.466;8.468;2022-10-16T08:06:20;3.80;;;2.50;;
11111;SDS011;5609;49.466;8.468;2022-10-16T08:08:48;3.40;;;2.80;;
11111;SDS011;5609;49.466;8.468;2022-10-16T08:11:15;2.97;;;2.60;;
11111;SDS011;5609;49.466;8.468;2022-10-16T08:13:43;4.53;;;2.80;;
11111;SDS011;5609;49.466;8.468;2022-10-16T08:16:10;4.93;;;2.83;;
11111;SDS011;5609;49.466;8.468;2022-10-16T08:18:37;4.00;;;2.90;;
11111;SDS011;5609;49.466;8.468;2022-10-16T08:21:05;3.77;;;2.67;;
11111;SDS011;5609;49.466;8.468;2022-10-16T08:23:33;4.70;;;2.60;;
11111;SDS011;5609;49.466;8.468;2022-10-16T08:26:04;6.00;;;2.43;;
11111;SDS011;5609;49.466;8.468;2022-10-16T08:28:32;4.00;;;2.70;;
11111;SDS011;5609;49.466;8.468;2022-10-16T08:31:08;3.87;;;2.73;;
11111;SDS011;5609;49.466;8.468;2022-10-16T08:33:35;3.67;;;2.50;;
11111;SDS011;5609;49.466;8.468;2022-10-16T08:36:03;2.80;;;2.50;;
11111;SDS011;5609;49.466;8.468;2022-10-16T08:38:31;3.03;;;2.73;;
11111;SDS011;5609;49.466;8.468;2022-10-16T08:41:01;4.07;;;2.77;;
11111;SDS011;5609;49.466;8.468;2022-10-16T08:43:43;6.70;;;3.30;;
11111;SDS011;5609;49.466;8.468;2022-10-16T08:46:28;3.73;;;2.90;;
11111;SDS011;5609;49.466;8.468;2022-10-16T08:49:03;5.30;;;2.50;;
11111;SDS011;5609;49.466;8.468;2022-10-16T08:51:36;6.40;;;2.70;;
11111;SDS011;5609;49.466;8.468;2022-10-16T08:54:04;4.47;;;2.80;;
11111;SDS011;5609;49.466;8.468;2022-10-16T08:56:32;5.33;;;2.97;;
11111;SDS011;5609;49.466;8.468;2022-10-16T08:58:59;10.37;;;4.10;;
11111;SDS011;5609;49.466;8.468;2022-10-16T09:01:32;7.27;;;4.20;;
11111;SDS011;5609;49.466;8.468;2022-10-16T09:04:09;6.50;;;3.87;;
11111;SDS011;5609;49.466;8.468;2022-10-16T09:06:50;5.30;;;3.70;;
11111;SDS011;5609;49.466;8.468;2022-10-16T09:09:30;6.30;;;3.80;;
11111;SDS011;5609;49.466;8.468;2022-10-16T09:12:11;6.77;;;3.70;;
11111;SDS011;5609;49.466;8.468;2022-10-16T09:17:39;4.47;;;3.50;;
11111;SDS011;5609;49.466;8.468;2022-10-16T09:20:18;7.37;;;3.40;;
11111;SDS011;5609;49.466;8.468;2022-10-16T09:22:52;5.20;;;3.30;;
11111;SDS011;5609;49.466;8.468;2022-10-16T09:25:25;5.50;;;3.23;;
11111;SDS011;5609;49.466;8.468;2022-10-16T09:27:53;5.17;;;3.10;;
11111;SDS011;5609;49.466;8.468;2022-10-16T09:30:20;4.63;;;2.67;;
11111;SDS011;5609;49.466;8.468;2022-10-16T09:32:50;4.70;;;2.73;;
11111;SDS011;5609;49.466;8.468;2022-10-16T09:35:19;3.30;;;2.77;;
11111;SDS011;5609;49.466;8.468;2022-10-16T09:37:49;6.93;;;3.20;;
11111;SDS011;5609;49.466;8.468;2022-10-16T09:40:24;3.57;;;2.80;;
11111;SDS011;5609;49.466;8.468;2022-10-16T09:42:52;5.17;;;2.90;;
11111;SDS011;5609;49.466;8.468;2022-10-16T09:45:26;3.33;;;2.60;;
11111;SDS011;5609;49.466;8.468;2022-10-16T09:47:54;4.37;;;2.70;;
11111;SDS011;5609;49.466;8.468;2022-10-16T09:50:22;5.60;;;2.50;;
11111;SDS011;5609;49.466;8.468;2022-10-16T09:52:51;2.83;;;2.27;;
11111;SDS011;5609;49.466;8.468;2022-10-16T09:55:29;3.17;;;2.40;;
11111;SDS011;5609;49.466;8.468;2022-10-16T09:57:56;5.13;;;2.50;;
11111;SDS011;5609;49.466;8.468;2022-10-16T10:00:23;3.00;;;2.40;;
11111;SDS011;5609;49.466;8.468;2022-10-16T10:02:50;2.93;;;2.20;;
11111;SDS011;5609;49.466;8.468;2022-10-16T10:05:20;4.10;;;2.30;;
11111;SDS011;5609;49.466;8.468;2022-10-16T10:07:53;3.97;;;2.47;;
11111;SDS011;5609;49.466;8.468;2022-10-16T10:10:22;2.43;;;2.23;;
11111;SDS011;5609;49.466;8.468;2022-10-16T10:12:51;5.83;;;2.53;;
11111;SDS011;5609;49.466;8.468;2022-10-16T10:15:18;5.23;;;3.30;;
11111;SDS011;5609;49.466;8.468;2022-10-16T10:17:49;3.17;;;2.87;;
11111;SDS011;5609;49.466;8.468;2022-10-16T10:20:25;4.93;;;2.90;;
11111;SDS011;5609;49.466;8.468;2022-10-16T10:22:53;4.37;;;2.30;;
11111;SDS011;5609;49.466;8.468;2022-10-16T10:25:26;5.07;;;2.37;;
11111;SDS011;5609;49.466;8.468;2022-10-16T10:31:14;2.80;;;2.13;;
11111;SDS011;5609;49.466;8.468;2022-10-16T10:33:46;3.70;;;2.20;;
11111;SDS011;5609;49.466;8.468;2022-10-16T10:36:24;4.37;;;2.17;;
11111;SDS011;5609;49.466;8.468;2022-10-16T10:38:56;3.13;;;2.30;;
11111;SDS011;5609;49.466;8.468;2022-10-16T10:41:37;2.73;;;2.00;;
11111;SDS011;5609;49.466;8.468;2022-10-16T10:44:16;3.30;;;2.03;;
11111;SDS011;5609;49.466;8.468;2022-10-16T10:46:55;4.43;;;1.93;;
11111;SDS011;5609;49.466;8.468;2022-10-16T10:52:31;3.87;;;2.10;;
11111;SDS011;5609;49.466;8.468;2022-10-16T10:55:12;4.33;;;2.50;;
11111;SDS011;5609;49.466;8.468;2022-10-16T10:57:50;3.43;;;1.90;;
11111;SDS011;5609;49.466;8.468;2022-10-16T11:00:28;2.73;;;2.07;;
11111;SDS011;5609;49.466;8.468;2022-10-16T11:03:06;4.43;;;1.87;;
11111;SDS011;5609;49.466;8.468;2022-10-16T11:05:42;3.17;;;1.77;;
11111;SDS011;5609;49.466;8.468;2022-10-16T11:08:15;2.77;;;2.00;;
11111;SDS011;5609;49.466;8.468;2022-10-16T11:10:48;3.20;;;2.17;;
11111;SDS011;5609;49.466;8.468;2022-10-16T11:13:21;3.67;;;1.80;;
11111;SDS011;5609;49.466;8.468;2022-10-16T11:15:56;3.20;;;2.00;;
11111;SDS011;5609;49.466;8.468;2022-10-16T11:18:27;3.33;;;1.90;;
11111;SDS011;5609;49.466;8.468;2022-10-16T11:21:04;4.43;;;1.93;;
11111;SDS011;5609;49.466;8.468;2022-10-16T11:23:35;4.80;;;2.20;;
11111;SDS011;5609;49.466;8.468;2022-10-16T11:26:10;2.00;;;1.70;;
11111;SDS011;5609;49.466;8.468;2022-10-16T11:28:41;2.90;;;1.80;;
11111;SDS011;5609;49.466;8.468;2022-10-16T11:31:13;2.40;;;1.93;;
11111;SDS011;5609;49.466;8.468;2022-10-16T11:33:44;3.03;;;2.00;;
11111;SDS011;5609;49.466;8.468;2022-10-16T11:36:14;3.30;;;2.00;;
11111;SDS011;5609;49.466;8.468;2022-10-16T11:38:47;3.40;;;1.50;;
11111;SDS011;5609;49.466;8.468;2022-10-16T11:41:21;4.10;;;1.90;;
11111;SDS011;5609;49.466;8.468;2022-10-16T11:43:56;4.03;;;1.93;;
11111;SDS011;5609;49.466;8.468;2022-10-16T11:46:32;3.50;;;2.00;;
11111;SDS011;5609;49.466;8.468;2022-10-16T11:49:07;3.03;;;2.07;;
11111;SDS011;5609;49.466;8.468;2022-10-16T11:51:39;2.10;;;1.87;;
11111;SDS011;5609;49.466;8.468;2022-10-16T11:54:12;3.13;;;1.90;;
11111;SDS011;5609;49.466;8.468;2022-10-16T11:56:46;3.00;;;2.00;;
11111;SDS011;5609;49.466;8.468;2022-10-16T11:59:18;2.17;;;1.73;;
11111;SDS011;5609;49.466;8.468;2022-10-16T12:01:52;2.50;;;2.00;;
11111;SDS011;5609;49.466;8.468;2022-10-16T12:04:24;2.63;;;2.10;;
11111;SDS011;5609;49.466;8.468;2022-10-16T12:06:59;5.33;;;2.10;;
11111;SDS011;5609;49.466;8.468;2022-10-16T12:09:34;3.50;;;2.10;;
11111;SDS011;5609;49.466;8.468;2022-10-16T12:12:03;2.70;;;2.07;;
11111;SDS011;5609;49.466;8.468;2022-10-16T12:14:35;2.77;;;2.07;;
11111;SDS011;5609;49.466;8.468;2022-10-16T12:19:56;2.63;;;2.00;;
11111;SDS011;5609;49.466;8.468;2022-10-16T12:22:24;3.03;;;2.30;;
11111;SDS011;5609;49.466;8.468;2022-10-16T12:24:56;3.50;;;2.10;;
11111;SDS011;5609;49.466;8.468;2022-10-16T12:27:24;3.97;;;2.10;;
11111;SDS011;5609;49.466;8.468;2022-10-16T12:29:55;5.40;;;2.43;;
11111;SDS011;5609;49.466;8.468;2022-10-16T12:32:29;5.03;;;2.30;;
11111;SDS011;5609;49.466;8.468;2022-10-16T12:34:58;4.00;;;2.40;;
11111;SDS011;5609;49.466;8.468;2022-10-16T12:37:27;3.33;;;2.97;;
11111;SDS011;5609;49.466;8.468;2022-10-16T12:39:58;2.57;;;2.17;;
11111;SDS011;5609;49.466;8.468;2022-10-16T12:42:37;3.17;;;2.40;;
11111;SDS011;5609;49.466;8.468;2022-10-16T12:45:13;2.60;;;2.30;;
11111;SDS011;5609;49.466;8.468;2022-10-16T12:47:52;3.73;;;2.20;;
11111;SDS011;5609;49.466;8.468;2022-10-16T12:50:24;2.40;;;2.20;;
11111;SDS011;5609;49.466;8.468;2022-10-16T12:53:00;2.97;;;2.30;;
11111;SDS011;5609;49.466;8.468;2022-10-16T12:55:32;2.53;;;2.10;;
11111;SDS011;5609;49.466;8.468;2022-10-16T12:58:10;2.97;;;2.30;;
11111;SDS011;5609;49.466;8.468;2022-10-16T13:00:49;3.83;;;2.50;;
11111;SDS011;5609;49.466;8.468;2022-10-16T13:03:29;3.43;;;2.30;;
11111;SDS011;5609;49.466;8.468;2022-10-16T13:06:11;3.53;;;2.10;;
11111;SDS011;5609;49.466;8.468;2022-10-16T13:11:55;2.40;;;2.20;;
11111;SDS011;5609;49.466;8.468;2022-10-16T13:14:35;3.93;;;2.13;;
11111;SDS011;5609;49.466;8.468;2022-10-16T13:17:14;4.67;;;2.10;;
11111;SDS011;5609;49.466;8.468;2022-10-16T13:19:50;3.30;;;2.10;;
11111;SDS011;5609;49.466;8.468;2022-10-16T13:22:24;3.20;;;2.20;;
11111;SDS011;5609;49.466;8.468;2022-10-16T13:24:58;3.47;;;2.03;;
11111;SDS011;5609;49.466;8.468;2022-10-16T13:27:37;2.43;;;2.20;;
11111;SDS011;5609;49.466;8.468;2022-10-16T13:30:11;2.90;;;2.20;;
11111;SDS011;5609;49.466;8.468;2022-10-16T13:32:43;2.47;;;2.20;;
11111;SDS011;5609;49.466;8.468;2022-10-16T13:35:18;4.60;;;1.93;;
11111;SDS011;5609;49.466;8.468;2022-10-16T13:37:46;3.87;;;2.20;;
11111;SDS011;5609;49.466;8.468;2022-10-16T13:40:17;2.77;;;2.07;;
11111;SDS011;5609;49.466;8.468;2022-10-16T13:42:48;3.37;;;2.20;;
11111;SDS011;5609;49.466;8.468;2022-10-16T13:45:18;4.30;;;2.37;;
11111;SDS011;5609;49.466;8.468;2022-10-16T13:47:46;5.10;;;2.40;;
11111;SDS011;5609;49.466;8.468;2022-10-16T13:50:14;4.43;;;2.23;;
11111;SDS011;5609;49.466;8.468;2022-10-16T13:52:42;3.07;;;2.10;;
11111;SDS011;5609;49.466;8.468;2022-10-16T13:55:10;6.10;;;2.40;;
11111;SDS011;5609;49.466;8.468;2022-10-16T13:57:38;3.00;;;2.43;;
11111;SDS011;5609;49.466;8.468;2022-10-16T14:00:18;3.23;;;1.97;;
11111;SDS011;5609;49.466;8.468;2022-10-16T14:02:49;4.87;;;2.57;;
11111;SDS011;5609;49.466;8.468;2022-10-16T14:05:19;4.53;;;2.30;;
11111;SDS011;5609;49.466;8.468;2022-10-16T14:07:47;3.47;;;2.00;;
11111;SDS011;5609;49.466;8.468;2022-10-16T14:10:20;5.40;;;2.40;;
11111;SDS011;5609;49.466;8.468;2022-10-16T14:12:56;4.73;;;2.33;;
11111;SDS011;5609;49.466;8.468;2022-10-16T14:15:27;4.23;;;2.23;;
11111;SDS011;5609;49.466;8.468;2022-10-16T14:17:55;3.20;;;2.50;;
11111;SDS011;5609;49.466;8.468;2022-10-16T14:20:23;5.67;;;2.50;;
11111;SDS011;5609;49.466;8.468;2022-10-16T14:22:59;4.30;;;2.40;;
11111;SDS011;5609;49.466;8.468;2022-10-16T14:25:28;6.07;;;2.93;;
11111;SDS011;5609;49.466;8.468;2022-10-16T14:27:57;2.53;;;2.33;;
11111;SDS011;5609;49.466;8.468;2022-10-16T14:30:30;4.10;;;2.33;;
11111;SDS011;5609;49.466;8.468;2022-10-16T14:32:59;5.00;;;2.50;;
11111;SDS011;5609;49.466;8.468;2022-10-16T14:35:29;5.33;;;2.47;;
11111;SDS011;5609;49.466;8.468;2022-10-16T14:37:57;4.00;;;2.10;;
11111;SDS011;5609;49.466;8.468;2022-10-16T14:40:26;3.83;;;2.30;;
11111;SDS011;5609;49.466;8.468;2022-10-16T14:42:54;3.17;;;2.13;;
11111;SDS011;5609;49.466;8.468;2022-10-16T14:45:22;3.20;;;2.57;;
11111;SDS011;5609;49.466;8.468;2022-10-16T14:47:53;3.50;;;2.40;;
11111;SDS011;5609;49.466;8.468;2022-10-16T14:50:21;4.60;;;2.60;;
11111;SDS011;5609;49.466;8.468;2022-10-16T14:52:48;4.07;;;2.53;;
11111;SDS011;5609;49.466;8.468;2022-10-16T14:55:15;4.93;;;2.60;;
11111;SDS011;5609;49.466;8.468;2022-10-16T14:57:43;5.63;;;2.37;;
11111;SDS011;5609;49.466;8.468;2022-10-16T15:00:18;3.50;;;2.40;;
11111;SDS011;5609;49.466;8.468;2022-10-16T15:02:46;4.57;;;2.10;;
11111;SDS011;5609;49.466;8.468;2022-10-16T15:05:17;4.63;;;2.33;;
11111;SDS011;5609;49.466;8.468;2022-10-16T15:07:45;2.77;;;2.30;;
11111;SDS011;5609;49.466;8.468;2022-10-16T15:10:13;6.20;;;2.40;;
11111;SDS011;5609;49.466;8.468;2022-10-16T15:12:40;4.67;;;2.07;;
11111;SDS011;5609;49.466;8.468;2022-10-16T15:18:03;3.70;;;2.10;;
11111;SDS011;5609;49.466;8.468;2022-10-16T15:20:32;3.73;;;2.03;;
11111;SDS011;5609;49.466;8.468;2022-10-16T15:23:01;2.47;;;2.10;;
11111;SDS011;5609;49.466;8.468;2022-10-16T15:25:33;3.30;;;2.13;;
11111;SDS011;5609;49.466;8.468;2022-10-16T15:28:03;5.20;;;2.20;;
11111;SDS011;5609;49.466;8.468;2022-10-16T15:30:30;2.67;;;2.30;;
11111;SDS011;5609;49.466;8.468;2022-10-16T15:32:57;2.90;;;2.47;;
11111;SDS011;5609;49.466;8.468;2022-10-16T15:35:24;7.27;;;3.67;;
11111;SDS011;5609;49.466;8.468;2022-10-16T15:37:54;8.43;;;4.47;;